Time;durP1;ratioP1;P1;durP2;ratioP2;P2;SDS_P1;SDS_P2;PMS_P1;PMS_P2;Temp;Humidity;BMP_temperature;BMP_pressure;BME280_temperature;BME280_humidity;BME280_pressure;Samples;Min_cycle;Max_cycle;Signal;HPM_P1;HPM_P2
2021/12/22 00:01:21;;;;;;;7.95;4.60;;;;;;;-5.27;56.53;95560.00;5115434;27;20027;-75
2021/12/22 00:03:47;;;;;;;8.02;4.63;;;;;;;-5.30;55.56;95565.09;5131170;27;20500;-75
2021/12/22 00:06:18;;;;;;;7.60;4.82;;;;;;;-5.30;55.92;95560.03;5135177;27;20382;-75
2021/12/22 00:08:43;;;;;;;8.00;5.03;;;;;;;-5.26;56.33;95562.53;5113640;27;20031;-75
2021/12/22 00:11:10;;;;;;;7.82;4.50;;;;;;;-5.18;56.16;95565.84;5112377;27;20401;-75
2021/12/22 00:13:35;;;;;;;8.07;4.50;;;;;;;-5.24;56.17;95557.44;5111313;27;20484;-75
2021/12/22 00:16:01;;;;;;;8.27;4.28;;;;;;;-5.22;55.67;95554.03;5137586;27;20031;-75
2021/12/22 00:18:26;;;;;;;8.77;4.63;;;;;;;-5.35;56.18;95546.56;5129385;27;20541;-75
2021/12/22 00:20:51;;;;;;;7.18;4.45;;;;;;;-5.26;56.18;95556.63;5139934;27;20031;-75
2021/12/22 00:23:17;;;;;;;7.53;4.50;;;;;;;-5.34;56.27;95566.00;5140911;27;20476;-75
2021/12/22 00:25:42;;;;;;;6.10;4.03;;;;;;;-5.54;56.29;95561.06;5135173;27;20412;-75
2021/12/22 00:28:08;;;;;;;8.80;4.78;;;;;;;-5.49;56.76;95570.34;5151943;27;20067;-75
2021/12/22 00:30:35;;;;;;;10.55;5.13;;;;;;;-5.47;56.77;95573.69;5120874;27;20056;-75
2021/12/22 00:33:06;;;;;;;9.02;4.47;;;;;;;-5.52;57.09;95572.88;5119158;27;20054;-75
2021/12/22 00:35:38;;;;;;;8.63;4.68;;;;;;;-5.76;57.07;95565.50;5132838;27;20030;-75
2021/12/22 00:38:05;;;;;;;10.15;4.70;;;;;;;-5.74;57.38;95566.31;5131560;27;20488;-75
2021/12/22 00:40:30;;;;;;;7.20;4.47;;;;;;;-5.80;57.01;95571.41;5129691;27;20055;-75
2021/12/22 00:42:56;;;;;;;7.88;4.18;;;;;;;-5.88;57.32;95577.41;5131141;27;20071;-75
2021/12/22 00:45:24;;;;;;;5.35;3.47;;;;;;;-5.93;56.82;95579.13;5131100;27;20011;-74
2021/12/22 00:47:49;;;;;;;6.90;3.95;;;;;;;-5.90;56.59;95579.09;5114284;27;20039;-75
2021/12/22 00:50:15;;;;;;;6.93;3.65;;;;;;;-5.94;56.85;95587.56;5120173;27;20486;-75
2021/12/22 00:52:40;;;;;;;4.50;2.92;;;;;;;-5.99;57.29;95583.38;5151709;27;20033;-75
2021/12/22 00:55:06;;;;;;;6.15;3.70;;;;;;;-6.03;57.42;95597.75;5152809;27;20049;-75
2021/12/22 00:57:33;;;;;;;6.65;3.60;;;;;;;-6.18;57.95;95590.28;5152807;27;20499;-74
2021/12/22 00:59:59;;;;;;;6.25;3.90;;;;;;;-6.20;57.63;95571.72;5149854;27;20449;-74
2021/12/22 01:02:24;;;;;;;6.25;4.03;;;;;;;-6.16;58.18;95591.09;5152788;27;20079;-74
2021/12/22 01:04:49;;;;;;;7.10;4.03;;;;;;;-6.22;57.84;95591.13;5153237;27;20076;-74
2021/12/22 01:07:15;;;;;;;6.75;4.00;;;;;;;-6.46;58.42;95570.19;5151805;27;20075;-74
2021/12/22 01:09:41;;;;;;;7.75;3.95;;;;;;;-6.27;58.03;95575.13;5138509;27;20035;-74
2021/12/22 01:12:07;;;;;;;6.32;3.63;;;;;;;-6.35;57.65;95575.16;5096839;27;20058;-74
2021/12/22 01:14:33;;;;;;;5.18;3.80;;;;;;;-6.27;58.36;95575.13;5132501;27;20035;-75
2021/12/22 01:17:01;;;;;;;5.50;3.55;;;;;;;-6.33;57.85;95579.38;5096875;27;20023;-75
2021/12/22 01:19:36;;;;;;;6.10;3.70;;;;;;;-6.45;58.37;95571.84;5131018;27;20031;-74
2021/12/22 01:22:19;;;;;;;4.85;3.05;;;;;;;-6.38;58.39;95565.94;5115191;27;20477;-75
2021/12/22 01:24:48;;;;;;;5.32;3.45;;;;;;;-6.57;57.92;95564.34;5131227;27;20118;-74
2021/12/22 01:27:15;;;;;;;7.07;3.83;;;;;;;-6.44;58.18;95560.88;5131507;27;20084;-74
2021/12/22 01:29:41;;;;;;;5.70;3.58;;;;;;;-6.50;58.63;95563.44;5128813;27;20082;-74
2021/12/22 01:32:09;;;;;;;6.45;3.60;;;;;;;-6.65;58.54;95545.84;5093137;28;20390;-74
2021/12/22 01:34:35;;;;;;;7.28;4.28;;;;;;;-6.57;58.75;95551.69;5110255;28;20080;-74
2021/12/22 01:37:00;;;;;;;7.38;3.90;;;;;;;-6.58;59.45;95547.47;5110151;28;20035;-74
2021/12/22 01:39:25;;;;;;;5.82;3.35;;;;;;;-6.65;59.91;95553.44;5110253;28;20155;-74
2021/12/22 01:41:51;;;;;;;5.03;3.50;;;;;;;-6.66;59.12;95547.50;5110013;28;20031;-74
2021/12/22 01:45:48;;;;;;;5.80;3.47;;;;;;;-6.56;59.06;95550.84;5110199;28;20032;-75
2021/12/22 01:50:28;;;;;;;5.80;3.47;;;;;;;-6.66;59.22;95537.38;5095931;28;20054;-74
2021/12/22 01:52:54;;;;;;;5.07;3.03;;;;;;;-6.59;59.08;95535.69;5110128;28;20070;-74
2021/12/22 01:55:26;;;;;;;8.07;3.22;;;;;;;-6.53;59.40;95544.06;5110014;28;20055;-75
2021/12/22 01:57:52;;;;;;;5.35;3.28;;;;;;;-6.67;59.67;95524.78;5110008;28;20038;-74
2021/12/22 02:00:19;;;;;;;7.65;3.95;;;;;;;-6.52;58.95;95534.78;5076205;28;20118;-75
2021/12/22 02:02:45;;;;;;;16.08;8.43;;;;;;;-6.61;60.51;95539.91;5109973;28;20031;-74
2021/12/22 02:05:11;;;;;;;39.90;19.58;;;;;;;-6.91;63.28;95535.81;5092923;28;20035;-74
2021/12/22 02:07:37;;;;;;;27.80;14.68;;;;;;;-6.76;62.75;95541.66;5109775;28;20035;-74
2021/12/22 02:12:36;;;;;;;13.55;6.93;;;;;;;-6.71;62.85;95543.31;5093575;28;20040;-74
2021/12/22 02:15:03;;;;;;;9.98;4.97;;;;;;;-6.77;62.08;95540.00;5109787;28;20111;-74
2021/12/22 02:17:29;;;;;;;7.28;4.38;;;;;;;-6.76;62.05;95544.19;5109809;28;20661;-74
2021/12/22 02:19:54;;;;;;;7.40;4.28;;;;;;;-6.70;61.31;95539.97;5109605;28;20201;-74
2021/12/22 02:22:20;;;;;;;6.57;3.47;;;;;;;-6.73;61.44;95527.34;5109729;28;20016;-74
2021/12/22 02:24:47;;;;;;;5.50;3.63;;;;;;;-6.71;60.10;95536.59;5111215;28;20036;-74
2021/12/22 02:27:45;;;;;;;5.75;3.28;;;;;;;-6.69;59.81;95541.63;5109608;28;20020;-74
2021/12/22 02:30:06;;;;;;;6.18;3.42;;;;;;;-6.67;59.17;95537.41;5109306;28;20424;-74
2021/12/22 02:35:02;;;;;;;5.00;3.38;;;;;;;-6.69;59.84;95529.81;5109882;28;20118;-74
2021/12/22 02:37:29;;;;;;;4.18;3.13;;;;;;;-6.59;59.09;95535.69;5093361;28;20420;-74
2021/12/22 02:40:11;;;;;;;5.00;3.33;;;;;;;-6.59;58.63;95534.00;5111628;28;20542;-74
2021/12/22 02:42:37;;;;;;;5.43;3.47;;;;;;;-6.74;59.23;95529.03;5114364;28;20020;-74
2021/12/22 02:45:06;;;;;;;4.75;3.03;;;;;;;-6.77;59.68;95519.78;5114317;28;20042;-74
2021/12/22 02:47:32;;;;;;;4.60;2.95;;;;;;;-6.81;59.92;95524.84;5113107;28;20024;-74
2021/12/22 02:49:57;;;;;;;6.00;4.00;;;;;;;-6.71;58.85;95526.50;5096042;28;20057;-74
2021/12/22 02:52:29;;;;;;;5.68;3.40;;;;;;;-6.64;58.74;95522.22;5114288;28;20031;-74
2021/12/22 02:54:56;;;;;;;5.85;3.38;;;;;;;-6.70;59.08;95524.78;5114177;28;20550;-74
2021/12/22 02:57:30;;;;;;;5.03;3.38;;;;;;;-6.78;58.98;95518.06;5112866;28;20039;-74
2021/12/22 03:05:23;;;;;;;6.10;3.35;;;;;;;-6.85;59.27;95538.31;5098847;28;20035;-74
2021/12/22 03:07:49;;;;;;;5.65;3.20;;;;;;;-6.80;58.92;95537.47;5095803;28;20119;-74
2021/12/22 03:10:17;;;;;;;5.05;3.28;;;;;;;-6.86;59.33;95532.44;5112705;28;20515;-75
2021/12/22 03:12:47;;;;;;;4.30;2.80;;;;;;;-6.91;59.74;95531.59;5096105;28;20107;-74
2021/12/22 03:15:13;;;;;;;6.13;3.55;;;;;;;-7.00;59.61;95529.94;5112631;28;20497;-74
2021/12/22 03:17:38;;;;;;;6.78;4.13;;;;;;;-6.93;59.66;95529.97;5112484;28;20059;-73
2021/12/22 03:20:05;;;;;;;8.38;3.83;;;;;;;-6.86;59.35;95529.91;5112353;28;20024;-74
2021/12/22 03:22:31;;;;;;;5.80;3.25;;;;;;;-6.99;59.76;95510.59;5108752;27;20080;-74
2021/12/22 03:24:56;;;;;;;4.80;3.30;;;;;;;-6.99;59.95;95526.59;5131207;27;20416;-74
2021/12/22 03:27:23;;;;;;;4.07;3.00;;;;;;;-6.98;60.27;95535.00;5130991;27;20513;-74
2021/12/22 03:29:48;;;;;;;4.53;2.83;;;;;;;-7.01;59.86;95538.38;5130688;27;20513;-74
2021/12/22 03:32:14;;;;;;;6.00;3.22;;;;;;;-6.99;59.55;95544.28;5132375;27;20023;-74
2021/12/22 03:34:39;;;;;;;6.55;3.60;;;;;;;-7.00;59.37;95539.22;5130509;27;20038;-74
2021/12/22 03:37:05;;;;;;;5.00;3.33;;;;;;;-6.95;59.31;95542.56;5097652;27;20537;-74
2021/12/22 03:39:32;;;;;;;5.82;3.35;;;;;;;-6.99;59.13;95541.75;5115693;27;20027;-74
2021/12/22 03:41:57;;;;;;;6.80;3.72;;;;;;;-7.04;59.19;95538.41;5132495;27;20439;-74
2021/12/22 03:44:23;;;;;;;5.95;3.70;;;;;;;-6.95;59.49;95534.16;5132721;27;20031;-74
2021/12/22 03:46:48;;;;;;;4.97;3.17;;;;;;;-7.13;59.69;95525.81;5132587;27;20488;-74
2021/12/22 03:49:14;;;;;;;6.55;3.47;;;;;;;-7.05;59.78;95530.81;5133875;27;20031;-73
2021/12/22 03:51:39;;;;;;;6.22;3.42;;;;;;;-7.06;59.35;95534.19;5132212;27;20038;-74
2021/12/22 03:54:10;;;;;;;7.35;3.85;;;;;;;-7.12;59.43;95534.22;5132466;27;20041;-73
2021/12/22 03:56:35;;;;;;;6.10;3.40;;;;;;;-7.10;59.44;95542.63;5132443;27;20054;-73
2021/12/22 03:59:01;;;;;;;8.57;3.65;;;;;;;-7.08;59.35;95540.94;5132374;27;20472;-73
2021/12/22 04:01:27;;;;;;;6.50;3.72;;;;;;;-7.18;59.54;95537.59;5133309;27;20480;-73
2021/12/22 04:03:56;;;;;;;6.88;3.28;;;;;;;-7.25;60.05;95525.81;5115011;27;20031;-73
2021/12/22 04:06:22;;;;;;;6.72;3.70;;;;;;;-7.14;59.82;95535.91;5115697;27;20027;-74
2021/12/22 04:08:47;;;;;;;7.68;3.50;;;;;;;-7.32;60.18;95541.84;5132103;27;20084;-73
2021/12/22 04:11:12;;;;;;;6.90;4.47;;;;;;;-7.26;60.73;95541.84;5132050;27;20038;-74
2021/12/22 04:13:38;;;;;;;7.40;4.05;;;;;;;-7.24;60.68;95551.09;5132160;27;20042;-73
2021/12/22 04:16:03;;;;;;;7.03;4.00;;;;;;;-7.23;60.96;95555.28;5131981;27;20031;-73
2021/12/22 04:18:29;;;;;;;7.10;4.43;;;;;;;-7.26;60.86;95552.78;5097560;27;20031;-73
2021/12/22 04:20:54;;;;;;;9.05;4.28;;;;;;;-7.42;60.94;95514.09;5131751;27;20027;-73
2021/12/22 04:23:20;;;;;;;6.63;4.07;;;;;;;-7.21;60.77;95545.19;5131652;27;20088;-73
2021/12/22 04:25:46;;;;;;;6.32;3.80;;;;;;;-7.25;60.68;95556.13;5131778;27;20031;-73
2021/12/22 04:28:12;;;;;;;7.20;4.18;;;;;;;-7.24;60.86;95562.88;5131722;27;20042;-73
2021/12/22 04:30:45;;;;;;;11.02;4.82;;;;;;;-7.37;60.55;95559.53;5120401;27;20048;-73
2021/12/22 04:33:10;;;;;;;11.85;6.13;;;;;;;-7.34;60.87;95554.47;5094581;28;20031;-73
2021/12/22 04:35:35;;;;;;;6.45;4.53;;;;;;;-7.49;60.49;95557.03;5110954;28;20076;-73
2021/12/22 04:38:01;;;;;;;9.50;4.68;;;;;;;-7.48;60.87;95566.28;5093847;28;20096;-73
2021/12/22 04:40:26;;;;;;;7.38;4.18;;;;;;;-7.60;60.92;95554.50;5112095;28;20026;-73
2021/12/22 04:42:52;;;;;;;7.75;3.95;;;;;;;-7.51;61.18;95557.03;5110717;28;20043;-73
2021/12/22 04:45:18;;;;;;;8.68;5.00;;;;;;;-7.64;61.91;95553.66;5110910;28;20038;-73
2021/12/22 04:47:43;;;;;;;8.60;4.93;;;;;;;-7.84;62.94;95567.97;5093889;28;20028;-73
2021/12/22 04:50:14;;;;;;;9.98;5.20;;;;;;;-7.91;63.55;95566.28;5110619;28;20023;-73
2021/12/22 04:52:50;;;;;;;7.43;4.47;;;;;;;-7.85;63.17;95565.47;5110866;28;20561;-73
2021/12/22 04:55:16;;;;;;;6.85;4.30;;;;;;;-7.86;62.97;95559.56;5110802;28;20063;-73
2021/12/22 04:57:41;;;;;;;9.13;4.88;;;;;;;-7.73;62.72;95567.97;5110584;28;20030;-73
2021/12/22 05:00:09;;;;;;;6.65;3.95;;;;;;;-7.82;63.11;95558.72;5093364;28;20027;-73
2021/12/22 05:02:35;;;;;;;7.18;4.40;;;;;;;-7.72;62.90;95567.13;5109898;28;20102;-73
2021/12/22 05:05:00;;;;;;;5.72;4.03;;;;;;;-7.59;62.28;95567.97;5110463;28;20401;-73
2021/12/22 05:07:26;;;;;;;7.70;4.30;;;;;;;-7.54;62.04;95573.84;5111677;28;20051;-73
2021/12/22 05:09:51;;;;;;;7.03;3.90;;;;;;;-7.47;61.82;95562.91;5093449;28;20508;-73
2021/12/22 05:12:16;;;;;;;7.35;4.35;;;;;;;-7.52;62.57;95559.53;5111629;28;20024;-73
2021/12/22 05:14:45;;;;;;;7.43;4.03;;;;;;;-7.46;61.70;95570.47;5111408;28;20088;-73
2021/12/22 05:17:18;;;;;;;8.98;4.35;;;;;;;-7.39;61.57;95570.47;5110357;28;20020;-73
2021/12/22 05:19:43;;;;;;;8.23;4.30;;;;;;;-7.34;61.07;95574.66;5094528;28;20101;-73
2021/12/22 05:22:09;;;;;;;8.30;4.45;;;;;;;-7.24;60.96;95578.03;5093255;28;20485;-73
2021/12/22 05:24:34;;;;;;;7.47;4.10;;;;;;;-7.28;61.06;95571.28;5110367;28;20492;-73
2021/12/22 05:27:00;;;;;;;6.22;4.40;;;;;;;-7.36;62.26;95573.81;5111414;28;20024;-73
2021/12/22 05:29:25;;;;;;;28.83;16.42;;;;;;;-7.45;64.45;95583.94;5110862;28;20055;-73
2021/12/22 05:31:54;;;;;;;38.85;22.80;;;;;;;-7.37;64.43;95592.34;5132138;27;20072;-73
2021/12/22 05:34:21;;;;;;;47.70;24.52;;;;;;;-7.51;65.26;95576.38;5114296;28;20047;-73
2021/12/22 05:36:46;;;;;;;46.60;24.05;;;;;;;-7.42;65.90;95596.56;5113470;28;20516;-73
2021/12/22 05:39:12;;;;;;;50.42;22.48;;;;;;;-7.40;65.61;95596.56;5113571;28;20039;-73
2021/12/22 05:41:37;;;;;;;39.40;19.75;;;;;;;-7.49;65.33;95590.69;5096671;28;20061;-73
2021/12/22 05:44:03;;;;;;;24.77;13.07;;;;;;;-7.45;64.94;95599.09;5096251;28;20039;-73
2021/12/22 05:46:28;;;;;;;22.92;11.52;;;;;;;-7.50;65.24;95588.97;5131797;27;20027;-73
2021/12/22 05:48:54;;;;;;;13.85;7.28;;;;;;;-7.43;64.22;95600.78;5130537;28;20035;-73
2021/12/22 05:51:21;;;;;;;8.70;5.18;;;;;;;-7.40;63.50;95604.97;5131831;27;20027;-74
2021/12/22 05:53:46;;;;;;;11.38;4.57;;;;;;;-7.34;63.13;95596.56;5131800;28;20407;-73
2021/12/22 05:56:12;;;;;;;7.93;3.80;;;;;;;-7.26;62.80;95597.38;5130489;28;20020;-73
2021/12/22 05:58:38;;;;;;;6.30;4.07;;;;;;;-7.28;62.29;95594.84;5113491;28;20043;-73
2021/12/22 06:01:03;;;;;;;8.27;4.13;;;;;;;-7.16;62.14;95598.19;5113238;28;20083;-72
2021/12/22 06:03:29;;;;;;;5.78;3.75;;;;;;;-7.15;62.11;95598.22;5113344;28;20027;-72
2021/12/22 06:05:54;;;;;;;6.57;3.88;;;;;;;-7.08;61.90;95599.88;5130390;28;20034;-72
2021/12/22 06:08:20;;;;;;;11.23;4.60;;;;;;;-7.10;61.61;95585.56;5113115;28;20035;-72
2021/12/22 06:10:45;;;;;;;5.95;3.33;;;;;;;-7.07;61.44;95585.56;5131812;27;20035;-72
2021/12/22 06:13:11;;;;;;;6.15;3.85;;;;;;;-7.03;62.16;95595.66;5114326;27;20034;-72
2021/12/22 06:15:37;;;;;;;6.15;3.90;;;;;;;-7.05;61.45;95596.50;5134345;27;20019;-73
2021/12/22 06:18:03;;;;;;;7.15;4.18;;;;;;;-7.08;61.54;95587.22;5134232;27;20215;-73
2021/12/22 06:20:29;;;;;;;6.35;3.83;;;;;;;-6.95;61.58;95603.22;5117063;27;20027;-72
2021/12/22 06:22:55;;;;;;;7.70;4.32;;;;;;;-6.94;61.11;95614.16;5115554;27;20035;-72
2021/12/22 06:25:20;;;;;;;6.22;3.95;;;;;;;-6.96;61.23;95614.19;5106775;27;20485;-72
2021/12/22 06:27:46;;;;;;;7.15;4.30;;;;;;;-6.97;61.75;95615.00;5116819;27;20038;-72
2021/12/22 06:30:11;;;;;;;7.75;4.20;;;;;;;-7.02;61.10;95615.03;5109426;28;20031;-72
2021/12/22 06:32:37;;;;;;;7.18;3.75;;;;;;;-6.95;61.03;95620.91;5113450;28;20024;-72
2021/12/22 06:35:02;;;;;;;9.55;3.72;;;;;;;-6.94;60.33;95617.50;5096191;28;20028;-72
2021/12/22 06:37:28;;;;;;;8.50;3.58;;;;;;;-7.06;61.07;95615.88;5127449;27;20547;-72
2021/12/22 06:39:53;;;;;;;7.10;3.83;;;;;;;-7.05;60.93;95617.56;5116500;27;20031;-72
2021/12/22 06:42:19;;;;;;;6.47;3.60;;;;;;;-6.98;60.54;95620.91;5133841;27;20027;-72
2021/12/22 06:44:44;;;;;;;7.32;4.00;;;;;;;-7.09;61.02;95617.56;5107035;28;20035;-72
2021/12/22 06:47:10;;;;;;;9.70;3.90;;;;;;;-7.15;60.86;95608.31;5113202;28;20032;-72
2021/12/22 06:49:36;;;;;;;6.78;4.32;;;;;;;-7.07;60.71;95618.41;5114687;28;20103;-72
2021/12/22 06:52:02;;;;;;;8.70;4.78;;;;;;;-7.17;60.70;95612.50;5113267;28;20035;-72
2021/12/22 06:54:28;;;;;;;6.40;4.65;;;;;;;-7.07;61.13;95618.41;5088251;27;20031;-72
2021/12/22 06:56:53;;;;;;;5.80;3.88;;;;;;;-7.12;61.16;95633.56;5130547;27;20473;-72
2021/12/22 06:59:19;;;;;;;6.90;3.95;;;;;;;-6.94;60.72;95630.16;5109920;28;20038;-72
2021/12/22 07:01:45;;;;;;;5.97;3.72;;;;;;;-6.95;60.73;95636.06;5113883;27;20026;-72
2021/12/22 07:04:11;;;;;;;6.85;3.83;;;;;;;-6.87;60.38;95636.06;5112489;28;20061;-73
2021/12/22 07:06:36;;;;;;;8.32;3.88;;;;;;;-6.91;60.70;95630.13;5100273;27;20023;-74
2021/12/22 07:09:02;;;;;;;8.68;4.22;;;;;;;-6.92;60.72;95637.75;5132030;27;20031;-72
2021/12/22 07:11:27;;;;;;;7.80;4.88;;;;;;;-6.92;60.94;95632.69;5137701;27;20458;-72
2021/12/22 07:13:53;;;;;;;8.68;4.50;;;;;;;-6.91;61.25;95631.81;5119366;27;20038;-72
2021/12/22 07:16:18;;;;;;;8.13;4.72;;;;;;;-6.89;60.99;95628.47;5121857;27;20246;-73
2021/12/22 07:18:44;;;;;;;8.80;4.00;;;;;;;-6.78;60.80;95639.38;5093733;28;20520;-72
2021/12/22 07:21:10;;;;;;;6.10;4.15;;;;;;;-6.73;61.01;95638.53;5131925;27;20082;-72
2021/12/22 07:23:36;;;;;;;10.90;4.35;;;;;;;-6.68;60.75;95635.16;5105733;27;20477;-72
2021/12/22 07:26:01;;;;;;;9.02;4.10;;;;;;;-6.56;60.82;95636.78;5095743;27;20031;-72
2021/12/22 07:28:27;;;;;;;6.78;3.95;;;;;;;-6.48;60.34;95635.09;5120879;27;20067;-72
2021/12/22 07:30:52;;;;;;;6.13;3.90;;;;;;;-6.48;60.68;95626.66;5114240;27;20019;-72
2021/12/22 07:33:18;;;;;;;8.38;4.20;;;;;;;-6.40;60.56;95628.31;5131228;27;20035;-73
2021/12/22 07:35:53;;;;;;;6.38;3.95;;;;;;;-6.27;59.76;95629.06;5112068;28;20107;-72
2021/12/22 07:38:29;;;;;;;7.30;4.25;;;;;;;-6.16;59.32;95634.09;5131708;27;20024;-72
2021/12/22 07:40:56;;;;;;;7.80;4.55;;;;;;;-6.08;59.62;95633.19;5115323;27;20511;-72
2021/12/22 07:43:22;;;;;;;6.45;4.05;;;;;;;-5.98;59.35;95635.69;5111820;28;20089;-72
2021/12/22 07:45:47;;;;;;;9.00;4.25;;;;;;;-5.88;59.87;95628.00;5111820;28;20055;-72
2021/12/22 07:48:13;;;;;;;7.28;3.97;;;;;;;-5.61;58.65;95628.66;5128382;27;20495;-72
2021/12/22 07:50:38;;;;;;;7.35;4.25;;;;;;;-5.46;58.72;95631.09;5113941;27;20038;-72
2021/12/22 07:53:04;;;;;;;7.68;4.00;;;;;;;-5.25;57.91;95625.00;5110610;27;20032;-72
2021/12/22 07:55:30;;;;;;;6.53;4.25;;;;;;;-5.01;57.08;95623.13;5097797;28;20034;-72
2021/12/22 07:57:55;;;;;;;7.40;4.25;;;;;;;-4.90;57.58;95628.91;5124679;27;20038;-72
2021/12/22 08:00:20;;;;;;;6.38;3.88;;;;;;;-4.78;57.29;95627.94;5112307;27;20032;-73
2021/12/22 08:02:46;;;;;;;6.28;3.72;;;;;;;-4.74;56.82;95617.75;5125641;27;20035;-72
2021/12/22 08:05:12;;;;;;;6.22;3.65;;;;;;;-4.63;56.36;95617.63;5131998;27;20027;-72
2021/12/22 08:07:37;;;;;;;7.82;4.28;;;;;;;-4.51;56.24;95614.97;5130600;27;20030;-72
2021/12/22 08:10:06;;;;;;;8.45;5.30;;;;;;;-4.33;56.05;95623.22;5114179;27;20099;-72
2021/12/22 08:12:32;;;;;;;8.65;5.00;;;;;;;-4.24;56.27;95624.78;5109210;27;20031;-73
2021/12/22 08:14:57;;;;;;;8.90;5.35;;;;;;;-4.11;54.44;95627.16;5115649;27;20401;-72
2021/12/22 08:17:23;;;;;;;13.25;7.20;;;;;;;-3.95;55.62;95617.66;5100509;27;20058;-72
2021/12/22 08:19:49;;;;;;;28.60;16.08;;;;;;;-3.85;56.25;95625.97;5101912;27;20035;-72
2021/12/22 08:22:14;;;;;;;32.67;18.92;;;;;;;-4.29;59.16;95610.47;5112838;27;20023;-72
2021/12/22 08:24:40;;;;;;;39.83;20.92;;;;;;;-3.93;59.20;95632.84;5112653;28;20035;-73
2021/12/22 08:27:05;;;;;;;42.65;24.88;;;;;;;-3.79;59.72;95630.13;5119044;27;20092;-73
2021/12/22 08:29:31;;;;;;;36.10;20.10;;;;;;;-3.51;59.94;95630.56;5118452;27;20051;-73
2021/12/22 08:31:56;;;;;;;37.15;17.90;;;;;;;-3.54;60.33;95635.69;5131971;27;20428;-72
2021/12/22 08:34:26;;;;;;;46.45;22.75;;;;;;;-4.31;63.17;95641.81;5110240;27;20432;-72
2021/12/22 08:39:36;;;;;;;46.90;19.75;;;;;;;-3.58;61.32;95639.97;5096459;28;20043;-70
2021/12/22 08:42:02;;;;;;;43.20;21.75;;;;;;;-3.37;60.85;95643.91;5111782;27;20031;-71
2021/12/22 08:44:27;;;;;;;34.45;16.45;;;;;;;-3.16;59.34;95642.72;5145637;27;20034;-76
2021/12/22 08:46:54;;;;;;;34.08;16.98;;;;;;;-2.89;59.75;95650.75;5125003;27;20121;-72
2021/12/22 08:49:21;;;;;;;26.48;13.52;;;;;;;-2.60;57.10;95650.22;5094242;28;20043;-71
2021/12/22 08:51:47;;;;;;;24.67;13.60;;;;;;;-2.52;57.38;95646.66;5111421;27;20024;-71
2021/12/22 08:54:13;;;;;;;27.13;15.18;;;;;;;-2.49;57.05;95641.53;5099025;27;20032;-70
2021/12/22 08:56:38;;;;;;;28.25;13.52;;;;;;;-2.48;55.61;95638.13;5117665;27;20100;-70
2021/12/22 08:59:05;;;;;;;21.38;10.90;;;;;;;-2.34;54.89;95637.88;5108934;28;20083;-71
2021/12/22 09:01:31;;;;;;;20.10;11.38;;;;;;;-2.89;56.47;95638.03;5091649;28;20035;-74
2021/12/22 09:03:56;;;;;;;22.73;12.55;;;;;;;-2.91;55.96;95643.16;5109546;27;20398;-72
2021/12/22 09:06:21;;;;;;;18.15;10.05;;;;;;;-3.20;57.63;95641.94;5129117;27;20023;-70
2021/12/22 09:08:47;;;;;;;17.48;10.32;;;;;;;-2.87;56.53;95639.69;5112415;27;20031;-71
2021/12/22 09:11:13;;;;;;;17.27;9.95;;;;;;;-2.66;55.91;95643.56;5128687;27;20031;-71
2021/12/22 09:13:39;;;;;;;19.52;11.77;;;;;;;-2.62;55.03;95641.78;5126799;27;20114;-71
2021/12/22 09:16:05;;;;;;;16.45;9.23;;;;;;;-2.47;54.06;95639.81;5122425;27;20544;-72
2021/12/22 09:18:30;;;;;;;20.20;11.13;;;;;;;-2.63;54.44;95638.41;5131895;27;20030;-71
2021/12/22 09:20:56;;;;;;;20.88;10.50;;;;;;;-2.33;53.78;95636.16;5091059;27;21280;-71
2021/12/22 09:23:21;;;;;;;26.23;12.80;;;;;;;-2.22;53.30;95639.31;5127666;27;20032;-71
2021/12/22 09:25:46;;;;;;;24.58;11.18;;;;;;;-2.22;53.31;95628.31;5103073;28;20032;-71
2021/12/22 09:28:13;;;;;;;20.70;11.80;;;;;;;-2.28;53.83;95642.84;5111288;28;20039;-71
2021/12/22 09:30:40;;;;;;;24.17;11.98;;;;;;;-2.14;53.36;95636.63;5125211;27;20050;-71
2021/12/22 09:33:06;;;;;;;17.15;9.38;;;;;;;-2.42;54.15;95642.25;5113212;27;20034;-71
2021/12/22 09:35:32;;;;;;;15.73;8.95;;;;;;;-2.68;54.59;95639.34;5119167;28;20560;-71
2021/12/22 09:37:57;;;;;;;14.52;8.13;;;;;;;-2.52;54.34;95630.56;5113267;28;20114;-71
2021/12/22 09:40:22;;;;;;;16.00;9.00;;;;;;;-2.44;54.20;95626.19;5128316;28;20110;-71
2021/12/22 09:42:48;;;;;;;63.92;21.92;;;;;;;-2.94;55.70;95616.06;5099273;28;20413;-71
2021/12/22 09:45:15;;;;;;;16.02;9.07;;;;;;;-2.77;54.76;95620.00;5128930;28;20473;-71
2021/12/22 09:48:21;;;;;;;19.25;11.02;;;;;;;-2.38;54.27;95625.22;5113885;27;20023;-71
2021/12/22 09:53:04;;;;;;;20.25;9.98;;;;;;;-2.28;53.61;95614.84;5130567;27;20044;-71
2021/12/22 09:55:32;;;;;;;20.48;10.27;;;;;;;-2.30;53.57;95616.56;5135210;27;20030;-71
2021/12/22 09:57:57;;;;;;;16.98;9.40;;;;;;;-2.08;53.18;95618.69;5134454;27;20037;-71
2021/12/22 10:00:23;;;;;;;17.02;8.35;;;;;;;-2.02;51.96;95610.91;5121150;27;20417;-71
2021/12/22 10:02:48;;;;;;;17.30;9.38;;;;;;;-2.52;53.74;95605.97;5113738;28;20032;-71
2021/12/22 10:05:14;;;;;;;21.30;9.55;;;;;;;-3.19;55.80;95604.66;5120839;27;20030;-71
2021/12/22 10:07:41;;;;;;;13.57;8.70;;;;;;;-2.67;54.59;95587.59;5117236;27;20035;-71
2021/12/22 10:10:09;;;;;;;15.70;8.88;;;;;;;-2.22;53.95;95611.31;5130994;27;20039;-71
2021/12/22 10:12:35;;;;;;;28.23;11.85;;;;;;;-2.04;53.61;95593.09;5130449;27;20024;-71
2021/12/22 10:15:02;;;;;;;37.97;16.20;;;;;;;-1.75;52.79;95601.84;5120348;27;20030;-71
2021/12/22 10:17:28;;;;;;;45.25;21.27;;;;;;;-1.65;52.77;95599.91;5123376;27;20025;-71
2021/12/22 10:19:56;;;;;;;20.45;10.48;;;;;;;-2.10;53.38;95597.50;5131677;27;20541;-71
2021/12/22 10:22:21;;;;;;;19.98;10.70;;;;;;;-1.77;52.76;95588.28;5112469;27;20033;-71
2021/12/22 10:24:47;;;;;;;29.55;13.50;;;;;;;-1.41;51.74;95595.97;5090256;27;20436;-71
2021/12/22 10:27:19;;;;;;;17.33;10.55;;;;;;;-1.10;49.91;95588.41;5132316;27;20493;-71
2021/12/22 10:29:44;;;;;;;22.50;13.27;;;;;;;-1.10;50.51;95583.31;5114307;27;20578;-71
2021/12/22 10:32:11;;;;;;;33.22;15.65;;;;;;;-0.92;50.00;95581.97;5119162;27;20026;-71
2021/12/22 10:34:59;;;;;;;30.92;16.35;;;;;;;-0.81;49.93;95589.38;5117151;27;20035;-71
2021/12/22 10:37:34;;;;;;;26.27;15.18;;;;;;;-0.89;50.35;95581.94;5112259;27;20107;-71
2021/12/22 10:40:00;;;;;;;22.80;11.82;;;;;;;-1.07;50.04;95573.03;5114148;27;20027;-71
2021/12/22 10:42:39;;;;;;;19.13;11.73;;;;;;;-1.09;50.88;95577.31;5124572;27;20027;-71
2021/12/22 10:45:12;;;;;;;22.67;12.55;;;;;;;-0.83;49.61;95578.38;5132306;27;20039;-71
2021/12/22 10:49:14;;;;;;;28.52;14.55;;;;;;;-0.83;49.14;95573.28;5131770;27;20457;-73
2021/12/22 10:50:31;;;;;;;19.45;11.20;;;;;;;-1.37;50.55;95577.16;5104056;27;20115;-71
2021/12/22 10:52:57;;;;;;;31.08;16.55;;;;;;;-1.24;51.07;95580.25;5123518;27;20030;-71
2021/12/22 10:55:23;;;;;;;24.77;14.35;;;;;;;-1.09;50.64;95579.88;5106447;27;20023;-71
2021/12/22 10:57:48;;;;;;;53.53;26.95;;;;;;;-0.98;50.61;95572.78;5117719;27;20034;-72
2021/12/22 11:00:19;;;;;;;36.50;17.33;;;;;;;-1.02;50.18;95573.75;5129499;27;20439;-71
2021/12/22 11:02:50;;;;;;;32.80;17.60;;;;;;;-0.99;50.33;95570.28;5125623;27;20055;-71
2021/12/22 11:05:23;;;;;;;26.50;13.77;;;;;;;-1.21;50.56;95564.88;5131986;27;20027;-71
2021/12/22 11:07:48;;;;;;;23.83;13.20;;;;;;;-1.50;51.96;95561.34;5100139;27;20041;-71
2021/12/22 11:10:27;;;;;;;28.55;14.88;;;;;;;-1.44;51.79;95545.91;5133258;27;20023;-71
2021/12/22 11:13:01;;;;;;;20.70;14.07;;;;;;;-1.69;51.88;95555.84;5099692;27;20039;-71
2021/12/22 11:15:26;;;;;;;26.02;14.07;;;;;;;-1.81;52.82;95562.06;5133181;27;20030;-71
2021/12/22 11:17:52;;;;;;;20.77;12.85;;;;;;;-2.20;52.74;95557.81;5134358;27;20023;-71
2021/12/22 11:20:17;;;;;;;32.17;14.75;;;;;;;-2.34;53.67;95555.56;5133068;27;20030;-71
2021/12/22 11:25:22;;;;;;;20.50;13.88;;;;;;;-1.72;52.76;95563.56;5133302;27;20084;-71
2021/12/22 11:27:49;;;;;;;24.10;13.77;;;;;;;-1.53;51.76;95546.13;5115830;27;20063;-71
2021/12/22 11:30:14;;;;;;;23.83;13.68;;;;;;;-2.13;52.90;95556.81;5115499;27;20051;-71
2021/12/22 11:32:41;;;;;;;23.85;14.10;;;;;;;-1.74;52.33;95552.56;5132832;27;20488;-71
2021/12/22 11:35:08;;;;;;;41.58;17.63;;;;;;;-1.91;52.55;95547.00;5098539;27;20042;-71
2021/12/22 11:37:33;;;;;;;27.73;14.27;;;;;;;-1.74;52.29;95538.97;5132740;27;20102;-71
2021/12/22 11:39:59;;;;;;;24.13;14.13;;;;;;;-1.58;51.66;95540.28;5133847;27;20130;-71
2021/12/22 11:42:30;;;;;;;26.25;15.38;;;;;;;-1.43;51.26;95534.81;5132680;27;20059;-71
2021/12/22 11:45:05;;;;;;;35.53;20.50;;;;;;;-1.32;51.12;95533.72;5132680;27;20035;-71
2021/12/22 11:47:30;;;;;;;32.35;19.35;;;;;;;-1.18;50.88;95541.84;5115313;27;20023;-71
2021/12/22 11:49:59;;;;;;;27.75;16.55;;;;;;;-1.02;50.16;95530.38;5115300;27;20035;-71